»·PEaware :: ECADR KSNA-KBUR

ECADR :: KSNA-KBUR

FLIGHT INFORMATION

Flight Status: Arrived
Operator: Unknown
More flights by this operator :: More flights under this callsign
Pilot: Adrián R. (20842)
Aircraft: BEECH AIRCRAFT DEBONAIR BONANZA
(BE33)
More flights by this aircraft type
Origin: KSNA John Wayne-Orange Co
United States
Destination: KBUR Bob Hope-Burbank
United States
More flights between these airports :: More routes between these airports
Route: SLI V23 POPPR SMO125R SMO SMO311R SILEX
File this flight plan on PilotEdge
Remarks: TEC ROUTE CSTP1 - I3 RATING ATTEMPT
Altitude:
(Current/Filed)
4,000ft
Speed:
(Current/Filed)
160kts
Departed: 04-Nov-18 08:25 AM
Arrived: 04-Nov-18 09:07 AM
Distance/Time
Traveled:
40nm/0:42
Distance/Time
To Go:
Arrived

Flight Plot

Page will automatically refresh every two minutes.


Map Options




Map Legend


Flown Route
Filed Route
Departure Airport
Arrival Airport
Navaid (VOR, NDB)
Fix

Horizontal Profiles

Position Reports

Time Latitude Longitude Heading Altitude Ground
Speed
04-Nov-18 07:37 33.672222 -117.873699 206 59ft 0kts
04-Nov-18 07:38 33.672222 -117.873699 206 59ft 0kts
04-Nov-18 07:39 33.672222 -117.873699 206 59ft 0kts
04-Nov-18 07:40 33.672222 -117.873699 206 59ft 0kts
04-Nov-18 07:41 33.672222 -117.873699 206 59ft 0kts
04-Nov-18 07:42 33.672222 -117.873699 206 59ft 0kts
04-Nov-18 07:43 33.672222 -117.873699 206 59ft 0kts
04-Nov-18 07:44 33.672222 -117.873699 206 59ft 0kts
04-Nov-18 07:45 33.672222 -117.873699 206 59ft 0kts
04-Nov-18 07:46 33.672222 -117.873699 206 59ft 0kts
04-Nov-18 07:47 33.672222 -117.873699 206 59ft 0kts
04-Nov-18 07:48 33.672222 -117.873699 206 59ft 0kts
04-Nov-18 07:49 33.672222 -117.873699 206 59ft 0kts
04-Nov-18 07:51 33.672222 -117.873699 206 59ft 0kts
04-Nov-18 07:52 33.672222 -117.873699 206 59ft 0kts
04-Nov-18 07:53 33.672222 -117.873699 206 59ft 0kts
04-Nov-18 07:54 33.672222 -117.873699 206 59ft 0kts
04-Nov-18 07:55 33.672222 -117.873699 206 59ft 0kts
04-Nov-18 07:56 33.672222 -117.873699 206 59ft 0kts
04-Nov-18 07:57 33.672222 -117.873699 206 59ft 0kts
04-Nov-18 07:58 33.672222 -117.873699 206 59ft 0kts
04-Nov-18 07:59 33.672222 -117.873699 206 59ft 0kts
04-Nov-18 08:00 33.672222 -117.873699 206 59ft 0kts
04-Nov-18 08:01 33.672222 -117.873699 206 59ft 0kts
04-Nov-18 08:02 33.672222 -117.873699 206 59ft 0kts
04-Nov-18 08:03 33.672222 -117.873699 206 59ft 0kts
04-Nov-18 08:04 33.672222 -117.873699 206 59ft 0kts
04-Nov-18 08:05 33.672222 -117.873699 206 59ft 0kts
04-Nov-18 08:06 33.672222 -117.873699 206 59ft 0kts
04-Nov-18 08:07 33.672222 -117.873699 206 59ft 0kts
04-Nov-18 08:08 33.672222 -117.873699 206 59ft 0kts
04-Nov-18 08:09 33.672222 -117.873699 206 59ft 0kts
04-Nov-18 08:10 33.672222 -117.873699 206 59ft 0kts
04-Nov-18 08:11 33.672222 -117.873699 206 59ft 0kts
04-Nov-18 08:12 33.672222 -117.873699 206 59ft 0kts
04-Nov-18 08:13 33.672222 -117.873699 206 59ft 0kts
04-Nov-18 08:14 33.672222 -117.873699 206 59ft 0kts
04-Nov-18 08:15 33.672222 -117.873699 206 59ft 0kts
04-Nov-18 08:16 33.672222 -117.873699 206 59ft 0kts
04-Nov-18 08:17 33.671979 -117.873467 118 59ft 0kts
04-Nov-18 08:18 33.671917 -117.873326 117 59ft 5kts
04-Nov-18 08:19 33.675079 -117.870718 27 59ft 20kts
04-Nov-18 08:20 33.677522 -117.868674 342 59ft 0kts
04-Nov-18 08:21 33.677522 -117.868674 342 59ft 0kts
04-Nov-18 08:22 33.677522 -117.868674 342 59ft 0kts
04-Nov-18 08:23 33.677522 -117.868674 342 59ft 0kts
04-Nov-18 08:24 33.677604 -117.868726 313 59ft 3kts
04-Nov-18 08:25 33.681283 -117.866839 60 59ft 11kts
04-Nov-18 08:26 33.681295 -117.866346 119 60ft 0kts
04-Nov-18 08:27 33.681111 -117.865976 124 59ft 8kts
04-Nov-18 08:28 33.672963 -117.870799 211 396ft 86kts
04-Nov-18 08:29 33.654658 -117.897232 231 1699ft 105kts
04-Nov-18 08:30 33.635058 -117.927378 231 2677ft 120kts
04-Nov-18 08:31 33.613974 -117.959002 231 3706ft 122kts
04-Nov-18 08:32 33.589948 -117.994417 231 4004ft 152kts
04-Nov-18 08:33 33.562452 -118.035089 231 4000ft 159kts
04-Nov-18 08:34 33.534372 -118.076622 231 4000ft 161kts
04-Nov-18 08:35 33.506172 -118.118237 231 4004ft 161kts
04-Nov-18 08:36 33.477930 -118.159591 231 4013ft 160kts
04-Nov-18 08:37 33.449501 -118.200818 232 4024ft 160kts
04-Nov-18 08:38 33.421488 -118.241106 232 4037ft 158kts
04-Nov-18 08:39 33.393319 -118.281520 232 4047ft 157kts
04-Nov-18 08:40 33.400263 -118.324230 334 4048ft 155kts
04-Nov-18 08:41 33.443603 -118.318865 9 4054ft 159kts
04-Nov-18 08:42 33.486867 -118.308533 9 4041ft 158kts
04-Nov-18 08:43 33.529301 -118.298873 9 4028ft 157kts
04-Nov-18 08:44 33.572223 -118.289638 9 4016ft 156kts
04-Nov-18 08:45 33.614787 -118.285811 339 4010ft 155kts
04-Nov-18 08:46 33.655399 -118.302981 340 4008ft 155kts
04-Nov-18 08:47 33.696024 -118.320505 340 4008ft 155kts
04-Nov-18 08:48 33.736473 -118.337964 340 4009ft 155kts
04-Nov-18 08:49 33.776943 -118.355460 340 4008ft 155kts
04-Nov-18 08:50 33.817596 -118.373060 340 4009ft 155kts
04-Nov-18 08:51 33.856397 -118.389874 340 4010ft 155kts
04-Nov-18 08:52 33.897030 -118.407465 340 4011ft 155kts
04-Nov-18 08:53 33.937661 -118.425119 340 4012ft 155kts
04-Nov-18 08:54 33.977886 -118.442594 340 3985ft 157kts
04-Nov-18 08:55 34.018506 -118.461270 326 3975ft 156kts
04-Nov-18 08:56 34.047650 -118.500059 312 3980ft 156kts
04-Nov-18 08:57 34.076353 -118.539468 312 3980ft 156kts
04-Nov-18 08:58 34.104327 -118.579155 311 3981ft 156kts
04-Nov-18 08:59 34.130590 -118.616809 311 3981ft 157kts
04-Nov-18 09:00 34.157155 -118.655222 310 3980ft 157kts
04-Nov-18 09:01 34.189812 -118.666187 32 3973ft 154kts
04-Nov-18 09:02 34.200522 -118.618692 87 3974ft 146kts
04-Nov-18 09:03 34.200319 -118.571597 88 3838ft 141kts
04-Nov-18 09:04 34.199758 -118.523182 89 3101ft 142kts
04-Nov-18 09:05 34.199344 -118.482463 89 2610ft 102kts
04-Nov-18 09:06 34.198974 -118.450802 89 2162ft 92kts
04-Nov-18 09:07 34.198562 -118.419730 90 1650ft 92kts
04-Nov-18 09:08 34.198198 -118.391222 89 1187ft 73kts
04-Nov-18 09:09 34.197918 -118.367288 89 803ft 71kts
04-Nov-18 09:10 34.198555 -118.357968 358 779ft 0kts
04-Nov-18 09:11 34.198592 -118.357969 357 779ft 3kts
04-Nov-18 09:12 34.201701 -118.359104 265 780ft 11kts
04-Nov-18 09:13 34.201919 -118.359318 258 779ft 2kts
04-Nov-18 09:14 34.201908 -118.359386 258 779ft 0kts

Navigation Log

Ident Type
Flight plan parsing failed, navigation log unavailable